Time;durP1;ratioP1;P1;durP2;ratioP2;P2;SDS_P1;SDS_P2;PMS_P1;PMS_P2;Temp;Humidity;BMP_temperature;BMP_pressure;BME280_temperature;BME280_humidity;BME280_pressure;Samples;Min_cycle;Max_cycle;Signal;HPM_P1;HPM_P2
2021/10/23 00:00:46;;;;;;;5.65;3.72;;;10.10;72.90;;;;;;6308131;22;20004;-93
2021/10/23 00:03:12;;;;;;;8.30;3.85;;;10.10;73.30;;;;;;6308217;22;20004;-94
2021/10/23 00:05:40;;;;;;;5.10;3.33;;;10.00;73.70;;;;;;6303090;22;20003;-94
2021/10/23 00:08:29;;;;;;;7.32;4.35;;;10.00;74.00;;;;;;6284218;22;20434;-94
2021/10/23 00:11:04;;;;;;;7.97;4.63;;;9.90;74.20;;;;;;6309633;22;19995;-95
2021/10/23 00:13:42;;;;;;;8.60;4.65;;;9.90;74.40;;;;;;6283253;22;20014;-95
2021/10/23 00:16:11;;;;;;;11.88;5.68;;;9.80;74.80;;;;;;6283150;22;20002;-95
2021/10/23 00:18:37;;;;;;;9.20;3.60;;;9.80;75.00;;;;;;6282926;22;20028;-94
2021/10/23 00:21:10;;;;;;;9.15;3.40;;;9.70;75.30;;;;;;6282544;22;20034;-95
2021/10/23 00:23:57;;;;;;;6.88;4.60;;;9.70;75.50;;;;;;6294622;22;19999;-95
2021/10/23 00:26:30;;;;;;;6.32;3.20;;;9.70;75.90;;;;;;6283356;22;20006;-95
2021/10/23 00:28:56;;;;;;;11.38;4.18;;;9.70;76.10;;;;;;6284301;22;20019;-95
2021/10/23 00:31:32;;;;;;;5.25;3.42;;;9.60;76.10;;;;;;6284434;22;20046;-95
2021/10/23 00:34:33;;;;;;;9.35;4.32;;;9.60;76.40;;;;;;6291357;22;19995;-96
2021/10/23 00:37:30;;;;;;;8.38;4.05;;;9.60;76.60;;;;;;6278174;22;20007;-95
2021/10/23 00:40:01;;;;;;;7.35;4.82;;;9.50;76.90;;;;;;6282047;22;20007;-96
2021/10/23 00:42:37;;;;;;;7.53;4.30;;;9.50;76.90;;;;;;6284267;22;19999;-96
2021/10/23 00:45:41;;;;;;;;;;;;;;;;;;;;;
2021/10/23 00:49:13;;;;;;;11.20;4.60;;;9.40;77.30;;;;;;6323604;22;20003;-95
2021/10/23 00:51:46;;;;;;;8.88;4.32;;;9.40;77.70;;;;;;6268014;22;20027;-94
2021/10/23 00:54:58;;;;;;;;;;;;;;;;;;;;;
2021/10/23 00:58:24;;;;;;;9.07;4.45;;;9.30;77.90;;;;;;6323221;22;20003;-95
2021/10/23 01:04:49;;;;;;;8.30;4.60;;;9.20;78.20;;;;;;6317411;22;19999;-95
2021/10/23 01:10:38;;;;;;;7.28;4.20;;;9.20;78.60;;;;;;6051641;23;20019;-95
2021/10/23 01:13:27;;;;;;;9.88;5.38;;;9.30;78.90;;;;;;6053562;23;20007;-96
2021/10/23 01:16:29;;;;;;;8.95;4.93;;;9.30;78.80;;;;;;6028170;23;20021;-95
2021/10/23 01:19:26;;;;;;;10.90;5.33;;;9.40;78.70;;;;;;6109207;23;20006;-96
2021/10/23 01:26:00;;;;;;;;;;;;;;;;;;;;;
2021/10/23 01:29:02;;;;;;;;;;;;;;;;;;;;;
2021/10/23 01:35:08;;;;;;;11.02;5.93;;;9.50;79.00;;;;;;6280131;22;20362;-95
2021/10/23 01:38:10;;;;;;;12.85;5.50;;;9.50;78.90;;;;;;6265301;22;20007;-95
2021/10/23 01:41:46;;;;;;;;;;;;;;;;;;;;;
2021/10/23 01:44:41;;;;;;;;;;;;;;;;;;;;;
2021/10/23 01:47:24;;;;;;;17.42;7.97;;;9.40;80.00;;;;;;6291784;22;20355;-95
2021/10/23 01:50:05;;;;;;;12.20;6.72;;;9.40;80.00;;;;;;6263063;22;20031;-95
2021/10/23 01:52:44;;;;;;;13.55;6.70;;;9.40;80.50;;;;;;6260541;22;20003;-94
2021/10/23 01:55:43;;;;;;;;;;;;;;;;;;;;;
2021/10/23 02:01:51;;;;;;;20.40;10.45;;;9.40;82.20;;;;;;6287704;22;20026;-95
2021/10/23 02:04:31;;;;;;;16.20;9.10;;;9.40;83.00;;;;;;6258081;22;20000;-95
2021/10/23 02:07:44;;;;;;;18.75;10.75;;;9.40;81.60;;;;;;6267580;22;20015;-95
2021/10/23 02:10:31;;;;;;;19.63;10.98;;;9.40;82.90;;;;;;6236927;22;20016;-94
2021/10/23 02:17:29;;;;;;;;;;;;;;;;;;;;;
2021/10/23 02:20:32;;;;;;;;;;;;;;;;;;;;;
2021/10/23 02:26:24;;;;;;;12.30;5.38;;;9.70;80.80;;;;;;6233608;23;20125;-95
2021/10/23 02:29:39;;;;;;;7.35;4.50;;;9.80;79.90;;;;;;6211110;23;19993;-96
2021/10/23 02:32:13;;;;;;;9.52;4.10;;;9.90;79.30;;;;;;6215543;23;19984;-95
2021/10/23 02:38:59;;;;;;;;;;;;;;;;;;;;;
2021/10/23 02:44:59;;;;;;;8.50;3.53;;;10.20;77.60;;;;;;6166589;23;20415;-96
2021/10/23 02:47:57;;;;;;;4.25;2.95;;;10.20;77.40;;;;;;6177203;23;20029;-96
2021/10/23 02:50:55;;;;;;;5.30;2.60;;;10.20;77.30;;;;;;6156206;23;20052;-95
2021/10/23 02:53:33;;;;;;;6.97;2.92;;;10.20;77.10;;;;;;6185157;23;20066;-96
2021/10/23 02:56:26;;;;;;;5.93;3.25;;;10.20;77.00;;;;;;6233473;22;20005;-95
2021/10/23 02:59:22;;;;;;;;;;;;;;;;;;;;;
2021/10/23 03:01:58;;;;;;;7.22;3.65;;;10.30;76.70;;;;;;6130804;23;20029;-95
2021/10/23 03:04:32;;;;;;;7.10;3.17;;;10.30;76.60;;;;;;6233944;22;20000;-95
2021/10/23 03:07:10;;;;;;;;;;;;;;;;;;;;;
2021/10/23 03:09:46;;;;;;;4.20;2.85;;;10.30;76.30;;;;;;6309790;22;20047;-96
2021/10/23 03:12:14;;;;;;;5.50;3.10;;;10.30;76.20;;;;;;6288368;22;20441;-94
2021/10/23 03:14:49;;;;;;;4.70;2.92;;;10.30;76.00;;;;;;6290172;22;20019;-94
2021/10/23 03:17:24;;;;;;;7.32;3.17;;;10.30;75.80;;;;;;6290733;22;19999;-94
2021/10/23 03:20:07;;;;;;;5.63;2.95;;;10.40;75.80;;;;;;6288116;22;19999;-94
2021/10/23 03:22:38;;;;;;;6.10;3.03;;;10.30;75.70;;;;;;6287535;22;20045;-94
2021/10/23 03:25:07;;;;;;;5.03;2.53;;;10.30;75.70;;;;;;6287159;22;20052;-95
2021/10/23 03:27:43;;;;;;;3.30;2.42;;;10.30;75.80;;;;;;6285303;22;20008;-95
2021/10/23 03:30:17;;;;;;;3.80;2.42;;;10.30;75.70;;;;;;6284374;22;20006;-94
2021/10/23 03:32:46;;;;;;;4.78;2.97;;;10.20;75.80;;;;;;6283636;22;20024;-94
2021/10/23 03:35:36;;;;;;;6.00;3.45;;;10.20;75.80;;;;;;6258898;22;20090;-94
2021/10/23 03:38:07;;;;;;;4.53;2.25;;;10.20;75.90;;;;;;6284278;22;20042;-94
2021/10/23 03:40:36;;;;;;;2.47;1.83;;;10.10;75.90;;;;;;6283282;22;20003;-94
2021/10/23 03:43:13;;;;;;;3.17;2.17;;;10.10;75.90;;;;;;6284046;22;20003;-94
2021/10/23 03:45:39;;;;;;;4.07;1.73;;;10.10;76.00;;;;;;6283790;22;20052;-94
2021/10/23 03:48:08;;;;;;;4.45;2.10;;;10.00;76.00;;;;;;6309459;22;20007;-93
2021/10/23 03:50:34;;;;;;;4.20;2.10;;;10.00;76.10;;;;;;6282844;22;20025;-93
2021/10/23 03:53:16;;;;;;;4.50;2.15;;;9.90;76.20;;;;;;6282377;22;20318;-94
2021/10/23 03:55:42;;;;;;;2.63;1.98;;;9.80;76.50;;;;;;6283134;22;19999;-93
2021/10/23 03:58:12;;;;;;;2.03;1.50;;;9.70;76.60;;;;;;6282908;22;20025;-93
2021/10/23 04:00:38;;;;;;;3.97;2.53;;;9.70;76.90;;;;;;6282775;22;20476;-94
2021/10/23 04:03:07;;;;;;;2.85;1.88;;;9.60;77.10;;;;;;6282168;22;20004;-93
2021/10/23 04:05:38;;;;;;;6.38;2.88;;;9.50;77.50;;;;;;6282589;22;20000;-93
2021/10/23 04:08:09;;;;;;;7.13;4.28;;;9.40;77.60;;;;;;6282485;22;20034;-93
2021/10/23 04:11:00;;;;;;;9.40;4.00;;;9.40;78.20;;;;;;6282730;22;20010;-93
2021/10/23 04:13:28;;;;;;;4.75;3.53;;;9.30;78.60;;;;;;6282180;22;20007;-93
2021/10/23 04:15:57;;;;;;;5.72;2.85;;;9.40;78.40;;;;;;6282619;22;20064;-94
2021/10/23 04:18:32;;;;;;;5.90;3.80;;;9.40;78.50;;;;;;6282881;22;19999;-93
2021/10/23 04:21:00;;;;;;;5.82;3.58;;;9.40;78.50;;;;;;6282483;22;20007;-93
2021/10/23 04:23:26;;;;;;;4.55;3.30;;;9.40;79.20;;;;;;6282439;22;19999;-92
2021/10/23 04:25:57;;;;;;;8.10;3.72;;;9.40;78.70;;;;;;6281666;22;20073;-92
2021/10/23 04:28:43;;;;;;;5.50;3.40;;;9.30;78.60;;;;;;6282153;22;20415;-93
2021/10/23 04:31:25;;;;;;;8.52;3.90;;;9.30;78.70;;;;;;6283028;22;20007;-93
2021/10/23 04:33:51;;;;;;;7.75;3.20;;;9.20;78.80;;;;;;6283379;22;20006;-93
2021/10/23 04:36:19;;;;;;;4.63;3.20;;;9.20;79.00;;;;;;6282415;22;20003;-93
2021/10/23 04:38:47;;;;;;;6.40;3.83;;;9.10;79.30;;;;;;6282571;22;20007;-93
2021/10/23 04:41:13;;;;;;;5.40;2.97;;;9.00;79.60;;;;;;6282465;22;20078;-93
2021/10/23 04:43:42;;;;;;;8.77;3.95;;;8.90;80.20;;;;;;6283751;22;20004;-93
2021/10/23 04:46:19;;;;;;;5.85;2.90;;;8.90;80.40;;;;;;6285026;22;20418;-93
2021/10/23 04:48:48;;;;;;;6.05;3.42;;;8.80;80.60;;;;;;6282570;22;20007;-92
2021/10/23 04:51:13;;;;;;;7.75;3.97;;;8.80;81.10;;;;;;6281885;22;20019;-92
2021/10/23 04:54:10;;;;;;;6.45;3.58;;;8.70;81.40;;;;;;6282193;22;20005;-92
2021/10/23 04:56:36;;;;;;;6.53;3.55;;;8.70;81.90;;;;;;6282485;22;20061;-92
2021/10/23 04:59:02;;;;;;;6.50;3.45;;;8.70;81.90;;;;;;6281375;22;20003;-92
2021/10/23 05:01:30;;;;;;;6.50;4.47;;;8.70;82.20;;;;;;6281594;22;20007;-92
2021/10/23 05:03:56;;;;;;;7.75;3.92;;;8.70;82.60;;;;;;6281096;22;20026;-93
2021/10/23 05:06:22;;;;;;;7.15;3.42;;;8.70;82.40;;;;;;6281865;22;20003;-93
2021/10/23 05:08:48;;;;;;;8.07;3.50;;;8.80;82.20;;;;;;6281899;22;20015;-91
2021/10/23 05:11:17;;;;;;;6.20;4.10;;;8.80;82.20;;;;;;6282280;22;20410;-92
2021/10/23 05:13:42;;;;;;;5.72;3.55;;;8.80;82.20;;;;;;6281673;22;19999;-92
2021/10/23 05:16:10;;;;;;;4.82;3.25;;;8.80;82.20;;;;;;6282174;22;20121;-93
2021/10/23 05:18:36;;;;;;;3.63;2.80;;;8.90;82.20;;;;;;6283171;22;20366;-93
2021/10/23 05:21:06;;;;;;;5.65;2.83;;;8.90;82.40;;;;;;6282055;22;19996;-93
2021/10/23 05:23:32;;;;;;;4.53;2.75;;;8.90;83.00;;;;;;6283324;22;20026;-93
2021/10/23 05:26:00;;;;;;;4.97;3.28;;;9.00;82.60;;;;;;6282038;22;20105;-93
2021/10/23 05:28:26;;;;;;;4.50;2.50;;;9.00;82.80;;;;;;6282345;22;20488;-92
2021/10/23 05:30:55;;;;;;;8.77;3.28;;;9.10;83.00;;;;;;6283148;22;20044;-92
2021/10/23 05:33:24;;;;;;;4.93;3.50;;;9.20;83.00;;;;;;6283856;22;20003;-92
2021/10/23 05:35:50;;;;;;;6.38;3.22;;;9.30;82.80;;;;;;6282403;22;20052;-91
2021/10/23 05:38:23;;;;;;;6.07;4.03;;;9.40;82.60;;;;;;6281524;22;20007;-92
2021/10/23 05:40:51;;;;;;;8.93;4.80;;;9.50;82.60;;;;;;6282048;22;20093;-93
2021/10/23 05:43:19;;;;;;;7.75;4.10;;;9.60;82.30;;;;;;6281906;22;20019;-94
2021/10/23 05:45:46;;;;;;;7.15;3.67;;;9.70;82.00;;;;;;6281467;22;20022;-92
2021/10/23 05:48:12;;;;;;;6.55;4.53;;;9.70;81.80;;;;;;6281785;22;20418;-92
2021/10/23 05:50:44;;;;;;;10.20;5.75;;;9.70;81.90;;;;;;6279963;22;20008;-93
2021/10/23 05:53:20;;;;;;;10.80;5.15;;;9.70;81.80;;;;;;6281790;22;20007;-94
2021/10/23 05:55:48;;;;;;;15.32;7.10;;;9.80;81.70;;;;;;6281430;22;20045;-93
2021/10/23 05:58:17;;;;;;;15.63;7.03;;;9.90;81.60;;;;;;6285970;22;20025;-92
2021/10/23 06:00:49;;;;;;;18.63;8.18;;;9.90;81.60;;;;;;6286372;22;20007;-93
2021/10/23 06:03:22;;;;;;;25.88;8.73;;;9.90;81.50;;;;;;6292919;22;19999;-92
2021/10/23 06:06:10;;;;;;;14.70;7.80;;;10.00;81.40;;;;;;6300408;22;19999;-93
2021/10/23 06:08:39;;;;;;;16.98;7.68;;;10.00;81.20;;;;;;6302933;22;20015;-94
2021/10/23 06:11:07;;;;;;;11.70;5.55;;;10.10;80.90;;;;;;6297143;22;19999;-92
2021/10/23 06:13:36;;;;;;;12.30;6.07;;;10.10;80.70;;;;;;6284280;22;20042;-92
2021/10/23 06:16:02;;;;;;;11.52;4.45;;;10.10;80.60;;;;;;6286113;22;19996;-92
2021/10/23 06:18:28;;;;;;;10.93;4.63;;;10.10;80.40;;;;;;6285554;22;20003;-91
2021/10/23 06:21:10;;;;;;;9.23;4.50;;;10.20;80.20;;;;;;6283164;22;20030;-93
2021/10/23 06:24:34;;;;;;;8.93;5.20;;;10.20;80.10;;;;;;6282060;22;20051;-92
2021/10/23 06:27:16;;;;;;;10.18;3.97;;;10.20;80.10;;;;;;6310031;22;20031;-92
2021/10/23 06:33:25;;;;;;;16.38;9.52;;;10.30;80.00;;;;;;6275306;22;20435;-91
2021/10/23 06:36:03;;;;;;;17.70;8.48;;;10.30;80.00;;;;;;6283327;22;20334;-92
2021/10/23 06:38:31;;;;;;;15.70;6.93;;;10.30;79.80;;;;;;6282439;22;20003;-90
2021/10/23 06:41:14;;;;;;;11.32;7.93;;;10.40;79.40;;;;;;6282374;22;20004;-91
2021/10/23 06:43:53;;;;;;;15.88;7.32;;;10.30;79.50;;;;;;6283431;22;20019;-91
2021/10/23 06:46:31;;;;;;;15.00;7.25;;;10.40;79.70;;;;;;6282402;22;20007;-91
2021/10/23 06:49:06;;;;;;;11.52;6.10;;;10.30;79.70;;;;;;6281420;22;20027;-90
2021/10/23 06:51:35;;;;;;;10.77;7.07;;;10.30;79.80;;;;;;6281948;22;20039;-90
2021/10/23 06:54:18;;;;;;;13.15;5.80;;;10.30;80.00;;;;;;6283530;22;20014;-90
2021/10/23 06:56:46;;;;;;;10.93;5.88;;;10.30;80.20;;;;;;6282607;22;20002;-91
2021/10/23 06:59:22;;;;;;;11.20;5.90;;;10.30;80.50;;;;;;6257099;22;20086;-90
2021/10/23 07:02:00;;;;;;;13.02;6.53;;;10.30;80.70;;;;;;6283597;22;20054;-90
2021/10/23 08:51:37;;;;;;;7.13;4.15;;;11.70;68.40;;;;;;5985672;24;20352;-90
2021/10/23 08:54:14;;;;;;;8.77;3.80;;;11.80;66.70;;;;;;5961028;23;20008;-90
2021/10/23 08:56:49;;;;;;;7.78;4.38;;;11.80;68.00;;;;;;6072847;23;20002;-90
2021/10/23 08:59:42;;;;;;;;;;;;;;;;;;;;;
2021/10/23 09:02:20;;;;;;;6.22;3.72;;;12.00;64.90;;;;;;6119490;23;20081;-91
2021/10/23 09:08:44;;;;;;;6.60;3.83;;;12.00;63.00;;;;;;6205239;22;20094;-94
2021/10/23 09:14:42;;;;;;;7.32;3.10;;;12.00;59.90;;;;;;6126260;23;20033;-91
2021/10/23 09:18:03;;;;;;;;;;;;;;;;;;;;;
2021/10/23 09:20:57;;;;;;;6.45;3.00;;;12.00;61.00;;;;;;6094284;23;20102;-91
2021/10/23 09:23:31;;;;;;;3.47;2.25;;;12.00;60.80;;;;;;6096378;23;20449;-90
2021/10/23 09:26:22;;;;;;;5.82;3.20;;;12.10;60.60;;;;;;6198030;23;20003;-92
2021/10/23 09:29:19;;;;;;;6.80;3.38;;;12.10;60.10;;;;;;6076024;23;20018;-91
2021/10/23 09:50:54;;;;;;;;;;;;;;;;;;;;;
2021/10/23 09:57:21;;;;;;;4.78;3.65;;;13.00;56.30;;;;;;5993516;23;20347;-91
2021/10/23 10:03:28;;;;;;;6.53;3.38;;;13.30;56.00;;;;;;6014818;23;20008;-90
2021/10/23 10:06:26;;;;;;;4.80;2.70;;;13.30;55.40;;;;;;6052056;23;20007;-91
2021/10/23 10:09:03;;;;;;;5.55;3.08;;;13.20;55.30;;;;;;6143195;23;20018;-91
2021/10/23 10:12:10;;;;;;;6.53;3.38;;;13.30;56.40;;;;;;6128765;23;20019;-89
2021/10/23 10:17:39;;;;;;;7.85;3.53;;;13.50;55.60;;;;;;6097490;23;20497;-89
2021/10/23 10:20:46;;;;;;;6.03;4.03;;;13.40;55.80;;;;;;6070509;23;20060;-91
2021/10/23 10:24:17;;;;;;;;;;;;;;;;;;;;;
2021/10/23 10:27:36;;;;;;;10.35;3.92;;;13.30;56.00;;;;;;6098461;23;20046;-90
2021/10/23 10:30:40;;;;;;;;;;;;;;;;;;;;;
2021/10/23 10:34:13;;;;;;;;;;;;;;;;;;;;;
2021/10/23 11:19:45;;;;;;;;;;;;;;;;;;;;;
2021/10/23 11:28:02;;;;;;;7.20;3.22;;;13.70;53.60;;;;;;6290879;22;20016;-95
2021/10/23 11:31:19;;;;;;;;;;;;;;;;;;;;;
2021/10/23 11:40:38;;;;;;;5.70;3.50;;;13.80;53.60;;;;;;6039516;23;20152;-90
2021/10/23 11:43:45;;;;;;;;;;;;;;;;;;;;;
2021/10/23 11:46:23;;;;;;;7.63;2.85;;;13.90;53.00;;;;;;6274287;22;20087;-92
2021/10/23 11:49:23;;;;;;;8.50;3.38;;;13.90;53.60;;;;;;6254122;22;20074;-92
2021/10/23 11:52:14;;;;;;;;;;;;;;;;;;;;;
2021/10/23 11:54:47;;;;;;;6.60;3.17;;;14.00;53.10;;;;;;6279718;22;20083;-90
2021/10/23 11:57:39;;;;;;;4.63;2.92;;;14.00;53.10;;;;;;6252057;22;20008;-91
2021/10/23 12:00:19;;;;;;;4.53;3.03;;;14.10;52.20;;;;;;6254309;22;20000;-91
2021/10/23 12:03:41;;;;;;;;;;;;;;;;;;;;;
2021/10/23 12:06:13;;;;;;;5.25;2.97;;;14.10;51.80;;;;;;6278070;22;20003;-91
2021/10/23 12:08:44;;;;;;;4.60;3.00;;;14.10;51.80;;;;;;6259134;22;20004;-93
2021/10/23 12:12:07;;;;;;;6.88;3.25;;;14.10;52.20;;;;;;6233229;22;20004;-92
2021/10/23 12:14:39;;;;;;;5.60;2.83;;;14.20;50.80;;;;;;6245632;22;19984;-92
2021/10/23 12:17:15;;;;;;;4.07;2.97;;;14.30;50.50;;;;;;6277610;22;19999;-93
2021/10/23 12:20:33;;;;;;;7.15;2.97;;;14.20;49.90;;;;;;6277021;22;20031;-92
2021/10/23 12:23:04;;;;;;;3.95;2.47;;;14.20;50.20;;;;;;6285108;22;20004;-93
2021/10/23 12:26:11;;;;;;;;;;;;;;;;;;;;;
2021/10/23 12:32:18;;;;;;;3.28;2.17;;;14.30;49.40;;;;;;6257307;22;20008;-93
2021/10/23 12:35:04;;;;;;;4.07;2.33;;;14.30;48.30;;;;;;6252657;22;20327;-93
2021/10/23 12:37:36;;;;;;;4.47;1.80;;;14.30;48.60;;;;;;6251773;22;20014;-94
2021/10/23 12:40:14;;;;;;;4.78;2.17;;;14.30;48.50;;;;;;6251101;22;20004;-93
2021/10/23 12:42:49;;;;;;;6.38;2.17;;;14.30;48.20;;;;;;6252444;22;20098;-92
2021/10/23 12:45:18;;;;;;;7.57;2.33;;;14.30;47.50;;;;;;6252116;22;20484;-92
2021/10/23 12:47:50;;;;;;;4.68;2.28;;;14.30;47.50;;;;;;6252122;22;20012;-92
2021/10/23 12:50:20;;;;;;;2.78;1.98;;;14.30;47.30;;;;;;6251360;22;20031;-92
2021/10/23 12:52:49;;;;;;;3.60;2.50;;;14.30;47.70;;;;;;6252419;22;20010;-91
2021/10/23 12:55:15;;;;;;;4.00;2.20;;;14.40;47.20;;;;;;6252984;22;20057;-91
2021/10/23 12:57:44;;;;;;;4.57;2.38;;;14.40;47.40;;;;;;6254370;22;20033;-90
2021/10/23 13:00:14;;;;;;;3.28;2.13;;;14.50;47.90;;;;;;6253954;22;20006;-92
2021/10/23 13:02:42;;;;;;;3.08;2.15;;;14.60;47.80;;;;;;6252881;22;20002;-91
2021/10/23 13:05:21;;;;;;;4.43;2.03;;;14.80;47.80;;;;;;6255179;22;20022;-92
2021/10/23 13:07:55;;;;;;;4.47;2.15;;;14.90;47.60;;;;;;6253642;22;20411;-94
2021/10/23 13:10:46;;;;;;;2.60;2.15;;;15.00;47.40;;;;;;6254879;22;20007;-93
2021/10/23 13:13:41;;;;;;;;;;;;;;;;;;;;;
2021/10/23 13:16:32;;;;;;;4.30;2.42;;;15.10;47.10;;;;;;6281285;22;20034;-94
2021/10/23 13:19:32;;;;;;;3.80;2.28;;;15.00;46.80;;;;;;6252567;22;20000;-94
2021/10/23 13:25:12;;;;;;;4.75;2.65;;;15.10;45.80;;;;;;6257898;22;20022;-95
2021/10/23 13:27:50;;;;;;;3.92;2.33;;;15.20;46.00;;;;;;6252306;22;20016;-95
2021/10/23 13:33:48;;;;;;;3.15;1.95;;;15.40;45.90;;;;;;6264999;22;19995;-95
2021/10/23 13:36:53;;;;;;;6.95;2.70;;;15.70;46.50;;;;;;6251813;22;19999;-94
2021/10/23 13:40:30;;;;;;;;;;;;;;;;;;;;;
2021/10/23 13:43:30;;;;;;;4.50;2.20;;;16.10;45.10;;;;;;6280806;22;20078;-95
2021/10/23 13:46:47;;;;;;;;;;;;;;;;;;;;;
2021/10/23 13:55:54;;;;;;;;;;;;;;;;;;;;;
2021/10/23 14:07:10;;;;;;;5.32;2.63;;;14.70;45.80;;;;;;6213791;23;20012;-94
2021/10/23 14:10:01;;;;;;;6.95;3.00;;;14.40;45.70;;;;;;6254471;23;20038;-93
2021/10/23 14:12:44;;;;;;;;;;;;;;;;;;;;;
2021/10/23 14:15:56;;;;;;;4.05;2.65;;;14.50;45.50;;;;;;6244815;23;20107;-94
2021/10/23 14:19:22;;;;;;;;;;;;;;;;;;;;;
2021/10/23 14:21:58;;;;;;;4.03;2.75;;;14.40;44.60;;;;;;6241702;23;20075;-93
2021/10/23 14:24:47;;;;;;;2.78;2.15;;;14.00;45.50;;;;;;6221866;23;20001;-93
2021/10/23 14:30:45;;;;;;;3.42;2.17;;;13.40;46.20;;;;;;6155344;23;20084;-93
2021/10/23 14:33:53;;;;;;;8.10;2.97;;;13.20;46.80;;;;;;6135324;23;20012;-92
2021/10/23 14:40:07;;;;;;;4.15;1.95;;;12.70;47.30;;;;;;6144342;23;20103;-93
2021/10/23 14:42:51;;;;;;;;;;;;;;;;;;;;;
2021/10/23 14:51:34;;;;;;;4.93;1.83;;;12.10;48.50;;;;;;6126983;23;20053;-92
2021/10/23 14:54:38;;;;;;;6.10;2.33;;;12.00;49.00;;;;;;6100748;23;20006;-93
2021/10/23 15:00:32;;;;;;;;;;;;;;;;;;;;;
2021/10/23 15:03:44;;;;;;;;;;;;;;;;;;;;;
2021/10/23 15:06:43;;;;;;;;;;;;;;;;;;;;;
2021/10/23 15:09:28;;;;;;;4.95;2.63;;;11.40;49.90;;;;;;6124605;23;20126;-94
2021/10/23 15:12:17;;;;;;;;;;;11.20;49.80;;;;;;6102833;23;20001;-94
2021/10/23 15:15:34;;;;;;;3.92;2.58;;;11.20;49.90;;;;;;6124470;23;19908;-93
2021/10/23 15:18:35;;;;;;;4.07;2.63;;;11.10;50.10;;;;;;6048317;23;20006;-93
2021/10/23 15:21:50;;;;;;;;;;;;;;;;;;;;;
2021/10/23 15:24:31;;;;;;;;;;;;;;;;;;;;;
2021/10/23 15:26:58;;;;;;;3.97;1.88;;;10.80;50.40;;;;;;6116434;23;20454;-96
2021/10/23 15:36:31;;;;;;;2.63;1.60;;;10.60;50.70;;;;;;6328930;22;20053;-96
2021/10/23 15:39:05;;;;;;;5.32;2.47;;;10.50;50.80;;;;;;6306978;22;19999;-93
2021/10/23 15:42:19;;;;;;;4.18;2.35;;;10.40;50.70;;;;;;6304117;22;20067;-94
2021/10/23 15:44:56;;;;;;;3.92;2.72;;;10.40;50.90;;;;;;6295228;22;20090;-95
2021/10/23 15:47:22;;;;;;;4.13;2.30;;;10.30;51.10;;;;;;6280244;22;19999;-95
2021/10/23 15:50:05;;;;;;;3.53;2.40;;;10.30;51.10;;;;;;6303978;22;20065;-95
2021/10/23 15:53:15;;;;;;;4.47;2.58;;;10.20;51.20;;;;;;6277518;22;20062;-94
2021/10/23 15:59:30;;;;;;;6.72;3.03;;;10.10;51.30;;;;;;6323296;22;20027;-93
2021/10/23 16:05:09;;;;;;;5.50;2.75;;;10.00;51.50;;;;;;6267845;22;20023;31
2021/10/23 16:08:04;;;;;;;6.28;3.70;;;10.00;51.50;;;;;;6220037;22;21264;-93
2021/10/23 16:10:35;;;;;;;5.53;2.50;;;10.00;51.60;;;;;;6297356;22;20007;-93
2021/10/23 16:15:54;;;;;;;6.35;3.08;;;10.00;51.80;;;;;;6319178;22;20023;-93
2021/10/23 16:18:20;;;;;;;3.85;3.38;;;9.90;51.80;;;;;;6274130;22;20067;-94
2021/10/23 16:21:01;;;;;;;7.45;4.95;;;9.90;51.90;;;;;;6284684;22;20000;-93
2021/10/23 16:23:29;;;;;;;6.30;3.90;;;9.90;52.00;;;;;;6319229;22;19991;-94
2021/10/23 16:26:00;;;;;;;8.00;3.30;;;9.90;52.20;;;;;;6298508;22;19999;-94
2021/10/23 16:28:29;;;;;;;6.20;3.42;;;9.80;52.20;;;;;;6320883;22;19995;-93
2021/10/23 16:31:03;;;;;;;5.57;4.13;;;9.80;52.40;;;;;;6265372;22;20018;-94
2021/10/23 16:33:33;;;;;;;4.68;3.85;;;9.70;52.40;;;;;;6285971;22;20427;-94
2021/10/23 16:36:01;;;;;;;5.70;3.95;;;9.70;52.50;;;;;;6261691;22;19999;-95
2021/10/23 16:38:31;;;;;;;6.57;3.70;;;9.70;52.60;;;;;;6286741;22;20006;-94
2021/10/23 16:40:58;;;;;;;7.63;3.53;;;9.60;52.70;;;;;;6261192;22;20011;-93
2021/10/23 16:43:25;;;;;;;4.43;3.30;;;9.60;53.00;;;;;;6282692;22;20010;-94
2021/10/23 16:45:57;;;;;;;5.93;3.58;;;9.60;53.10;;;;;;6290651;22;20038;-94
2021/10/23 16:48:32;;;;;;;5.32;3.30;;;9.50;53.20;;;;;;6312853;22;20016;-93
2021/10/23 16:51:12;;;;;;;7.40;3.80;;;9.50;53.90;;;;;;6267296;22;19991;-96
2021/10/23 16:54:17;;;;;;;;;;;;;;;;;;;;;
2021/10/23 16:57:26;;;;;;;8.73;4.63;;;9.40;53.60;;;;;;6225360;22;20003;-96
2021/10/23 17:04:20;;;;;;;13.32;4.82;;;9.30;53.90;;;;;;6083904;23;20043;-95
2021/10/23 17:07:37;;;;;;;6.50;3.95;;;9.30;53.90;;;;;;6083432;23;20018;-95
2021/10/23 17:10:19;;;;;;;7.00;3.47;;;9.20;54.20;;;;;;6080297;23;20014;-95
2021/10/23 17:13:07;;;;;;;6.10;3.78;;;9.10;54.30;;;;;;6073288;23;20011;-94
2021/10/23 18:08:22;;;;;;;;;;;;;;;;;;;;;
2021/10/23 18:15:31;;;;;;;;;;;;;;;;;;;;;
2021/10/23 18:18:51;;;;;;;;;;;;;;;;;;;;;
2021/10/23 18:39:30;;;;;;;5.45;4.03;;;7.80;58.20;;;;;;6012238;23;20019;-93
2021/10/23 18:41:58;;;;;;;5.95;3.17;;;7.80;58.30;;;;;;6072204;23;20014;-93
2021/10/23 18:44:52;;;;;;;4.97;2.65;;;7.70;58.30;;;;;;6158336;23;20000;-92
2021/10/23 18:47:18;;;;;;;4.47;2.70;;;7.70;58.80;;;;;;6131512;23;20088;-91
2021/10/23 18:50:52;;;;;;;4.97;2.72;;;7.70;58.70;;;;;;6189891;23;20021;-94
2021/10/23 18:53:23;;;;;;;5.65;3.20;;;7.70;59.30;;;;;;6132804;23;20461;-92
2021/10/23 18:59:39;;;;;;;10.98;5.30;;;7.60;59.80;;;;;;6127029;23;20037;-94
2021/10/23 19:05:51;;;;;;;5.35;3.38;;;7.60;59.80;;;;;;6095439;23;20104;-91
2021/10/23 19:08:17;;;;;;;10.53;4.87;;;7.60;59.60;;;;;;6102715;23;20014;-93
2021/10/23 19:25:57;;;;;;;4.47;2.75;;;7.40;59.80;;;;;;5843497;24;20022;-94
2021/10/23 19:28:59;;;;;;;7.63;2.97;;;7.40;59.90;;;;;;5881734;24;20024;-93
2021/10/23 19:31:27;;;;;;;5.40;3.45;;;7.30;60.30;;;;;;5893486;23;20012;-92
2021/10/23 19:33:56;;;;;;;4.43;3.03;;;7.30;60.30;;;;;;6045062;23;20469;-92
2021/10/23 19:36:24;;;;;;;7.57;3.40;;;7.30;60.60;;;;;;6179441;23;20023;-92
2021/10/23 19:38:50;;;;;;;7.30;3.47;;;7.20;60.90;;;;;;6221529;23;20008;-92
2021/10/23 19:41:17;;;;;;;7.90;4.07;;;7.20;60.70;;;;;;6222175;23;19997;-91
2021/10/23 19:43:45;;;;;;;9.50;4.00;;;7.20;61.00;;;;;;6248245;23;20000;-91
2021/10/23 19:46:14;;;;;;;12.77;4.10;;;7.20;61.50;;;;;;6220949;23;20004;-91
2021/10/23 19:48:40;;;;;;;4.82;3.78;;;7.10;61.60;;;;;;6222011;23;20011;-91
2021/10/23 19:51:06;;;;;;;6.20;2.50;;;7.20;61.60;;;;;;6222142;23;20015;-92
2021/10/23 19:53:34;;;;;;;4.90;3.00;;;7.10;61.50;;;;;;6222521;23;20004;-91
2021/10/23 19:56:00;;;;;;;8.27;3.53;;;7.10;61.80;;;;;;6095291;23;20002;-91
2021/10/23 19:58:25;;;;;;;7.47;3.80;;;7.10;61.90;;;;;;6222357;23;20008;-92
2021/10/23 20:00:52;;;;;;;7.50;3.15;;;7.10;62.10;;;;;;6221785;23;20004;-92
2021/10/23 20:03:22;;;;;;;7.78;4.70;;;7.10;62.20;;;;;;6222117;23;20007;-92
2021/10/23 20:05:51;;;;;;;8.45;4.13;;;7.10;63.10;;;;;;6222832;23;20001;-92
2021/10/23 20:08:18;;;;;;;9.80;4.32;;;7.10;62.70;;;;;;6221483;23;20011;-92
2021/10/23 20:10:44;;;;;;;7.97;4.00;;;7.10;62.80;;;;;;6221522;23;20004;-92
2021/10/23 20:13:10;;;;;;;8.30;2.80;;;7.10;62.70;;;;;;6221766;23;20083;-92
2021/10/23 20:15:36;;;;;;;8.95;3.70;;;7.10;62.80;;;;;;6221586;23;20086;-91
2021/10/23 20:18:04;;;;;;;5.85;3.38;;;7.10;62.90;;;;;;6221648;23;20019;-91
2021/10/23 20:20:30;;;;;;;7.43;3.28;;;7.10;63.00;;;;;;6221385;23;20000;-91
2021/10/23 20:22:57;;;;;;;8.05;4.15;;;7.10;63.30;;;;;;6117417;23;19996;-91
2021/10/23 20:25:23;;;;;;;7.07;4.43;;;7.00;63.50;;;;;;6221873;23;20000;-92
2021/10/23 20:27:49;;;;;;;9.48;3.72;;;7.10;63.70;;;;;;6250078;22;20019;-92
2021/10/23 20:30:15;;;;;;;4.53;2.70;;;7.00;63.60;;;;;;6252190;22;20415;-92
2021/10/23 20:32:41;;;;;;;6.07;3.72;;;7.00;63.60;;;;;;6251887;22;20006;-92
2021/10/23 20:35:08;;;;;;;6.07;3.75;;;7.00;63.70;;;;;;6251767;22;20079;-92
2021/10/23 20:37:34;;;;;;;7.80;3.35;;;7.00;63.60;;;;;;6251833;22;20003;-92
2021/10/23 20:40:00;;;;;;;3.95;2.55;;;7.00;63.70;;;;;;6226475;22;20301;-92
2021/10/23 20:42:26;;;;;;;7.38;3.53;;;7.00;63.70;;;;;;6278668;22;20125;-92
2021/10/23 20:44:52;;;;;;;4.65;2.47;;;7.00;63.80;;;;;;6278587;22;20010;-92
2021/10/23 20:47:18;;;;;;;3.65;2.53;;;7.00;63.80;;;;;;6251756;22;20004;-91
2021/10/23 20:49:44;;;;;;;6.25;3.50;;;7.00;63.90;;;;;;6251700;22;20015;-91
2021/10/23 20:52:10;;;;;;;8.68;3.35;;;7.00;64.40;;;;;;6251784;22;20075;-92
2021/10/23 20:54:36;;;;;;;5.43;3.20;;;6.90;64.30;;;;;;6278690;22;19995;-91
2021/10/23 20:57:03;;;;;;;7.32;3.67;;;6.90;64.30;;;;;;6251573;22;20395;-91
2021/10/23 20:59:32;;;;;;;5.65;3.28;;;6.90;64.80;;;;;;6251453;22;20006;-91
2021/10/23 21:02:00;;;;;;;6.03;3.40;;;6.80;64.80;;;;;;6251210;22;20385;-91
2021/10/23 21:04:26;;;;;;;6.70;3.90;;;6.90;64.70;;;;;;6251301;22;20011;-92
2021/10/23 21:06:54;;;;;;;10.05;3.75;;;6.80;64.90;;;;;;6251356;22;20395;-92
2021/10/23 21:09:24;;;;;;;7.05;3.33;;;6.80;65.00;;;;;;6251605;22;20007;-91
2021/10/23 21:12:03;;;;;;;5.55;3.58;;;6.80;65.00;;;;;;6251352;22;20042;-91
2021/10/23 21:14:30;;;;;;;5.82;3.08;;;6.80;65.50;;;;;;6251541;22;20094;-90
2021/10/23 21:16:56;;;;;;;4.15;2.58;;;6.80;65.30;;;;;;6252326;22;20011;-91
2021/10/23 21:19:21;;;;;;;7.57;3.47;;;6.70;65.70;;;;;;6251519;22;20371;-91
2021/10/23 21:21:47;;;;;;;7.35;4.15;;;6.70;65.80;;;;;;6251890;22;20008;-91